sensor_id;sensor_type;location;lat;lon;timestamp;pressure;altitude;pressure_sealevel;temperature;humidity
20628;BME280;10473;42.734;24.258;2022-08-11T00:00:33;92057.69;;;20.09;62.52
20628;BME280;10473;42.734;24.258;2022-08-11T00:03:04;92051.25;;;20.03;63.08
20628;BME280;10473;42.734;24.258;2022-08-11T00:05:42;92038.97;;;20.02;63.17
20628;BME280;10473;42.734;24.258;2022-08-11T00:08:21;92058.09;;;20.08;62.62
20628;BME280;10473;42.734;24.258;2022-08-11T00:10:53;92050.81;;;20.05;63.18
20628;BME280;10473;42.734;24.258;2022-08-11T00:13:31;92039.38;;;20.01;63.27
20628;BME280;10473;42.734;24.258;2022-08-11T00:15:59;92043.66;;;19.98;63.02
20628;BME280;10473;42.734;24.258;2022-08-11T00:18:29;92036.69;;;20.01;64.03
20628;BME280;10473;42.734;24.258;2022-08-11T00:20:58;92037.56;;;19.98;63.78
20628;BME280;10473;42.734;24.258;2022-08-11T00:23:28;92039.88;;;19.96;63.90
20628;BME280;10473;42.734;24.258;2022-08-11T00:25:56;92042.44;;;20.03;63.55
20628;BME280;10473;42.734;24.258;2022-08-11T00:28:26;92034.97;;;20.10;63.62
20628;BME280;10473;42.734;24.258;2022-08-11T00:30:57;92036.41;;;20.15;63.48
20628;BME280;10473;42.734;24.258;2022-08-11T00:33:32;92032.38;;;20.23;63.39
20628;BME280;10473;42.734;24.258;2022-08-11T00:36:02;92028.50;;;20.24;63.52
20628;BME280;10473;42.734;24.258;2022-08-11T00:38:34;92032.19;;;20.30;63.14
20628;BME280;10473;42.734;24.258;2022-08-11T00:41:22;92036.19;;;19.90;64.02
20628;BME280;10473;42.734;24.258;2022-08-11T00:44:27;92035.09;;;19.87;64.66
20628;BME280;10473;42.734;24.258;2022-08-11T00:47:13;92027.03;;;19.87;64.57
20628;BME280;10473;42.734;24.258;2022-08-11T00:49:51;92014.75;;;19.86;63.97
20628;BME280;10473;42.734;24.258;2022-08-11T00:52:31;92030.59;;;19.65;64.91
20628;BME280;10473;42.734;24.258;2022-08-11T00:55:31;92029.38;;;19.85;64.47
20628;BME280;10473;42.734;24.258;2022-08-11T01:01:08;92023.19;;;19.53;65.91
20628;BME280;10473;42.734;24.258;2022-08-11T01:06:50;92012.00;;;18.99;67.76
20628;BME280;10473;42.734;24.258;2022-08-11T01:09:27;92016.13;;;19.23;67.30
20628;BME280;10473;42.734;24.258;2022-08-11T01:12:19;92019.47;;;19.47;66.53
20628;BME280;10473;42.734;24.258;2022-08-11T01:24:55;92024.91;;;19.79;65.92
20628;BME280;10473;42.734;24.258;2022-08-11T01:34:10;92007.94;;;19.82;65.38
20628;BME280;10473;42.734;24.258;2022-08-11T01:40:32;92021.56;;;19.75;66.45
20628;BME280;10473;42.734;24.258;2022-08-11T01:43:26;92015.97;;;19.50;67.06
20628;BME280;10473;42.734;24.258;2022-08-11T01:46:25;92013.47;;;19.59;66.98
20628;BME280;10473;42.734;24.258;2022-08-11T01:49:02;92017.00;;;19.72;66.75
20628;BME280;10473;42.734;24.258;2022-08-11T01:51:47;91998.84;;;19.76;66.65
20628;BME280;10473;42.734;24.258;2022-08-11T01:54:29;92004.69;;;19.90;65.65
20628;BME280;10473;42.734;24.258;2022-08-11T01:57:11;92015.63;;;19.99;65.73
20628;BME280;10473;42.734;24.258;2022-08-11T01:59:46;92011.31;;;20.02;65.75
20628;BME280;10473;42.734;24.258;2022-08-11T02:02:22;92009.78;;;20.01;65.84
20628;BME280;10473;42.734;24.258;2022-08-11T02:05:21;92008.28;;;20.00;65.27
20628;BME280;10473;42.734;24.258;2022-08-11T02:07:55;91990.69;;;19.79;65.65
20628;BME280;10473;42.734;24.258;2022-08-11T02:10:32;92008.44;;;19.77;65.95
20628;BME280;10473;42.734;24.258;2022-08-11T02:13:33;92010.81;;;19.91;65.38
20628;BME280;10473;42.734;24.258;2022-08-11T02:16:12;92011.84;;;19.97;65.30
20628;BME280;10473;42.734;24.258;2022-08-11T02:18:48;92012.16;;;19.99;65.85
20628;BME280;10473;42.734;24.258;2022-08-11T02:21:43;92008.63;;;20.02;65.18
20628;BME280;10473;42.734;24.258;2022-08-11T02:24:33;92011.47;;;19.95;65.75
20628;BME280;10473;42.734;24.258;2022-08-11T02:27:05;92016.03;;;19.98;64.80
20628;BME280;10473;42.734;24.258;2022-08-11T02:29:42;92012.16;;;19.99;64.69
20628;BME280;10473;42.734;24.258;2022-08-11T02:32:18;92005.00;;;19.92;64.98
20628;BME280;10473;42.734;24.258;2022-08-11T02:35:13;92003.16;;;19.89;65.56
20628;BME280;10473;42.734;24.258;2022-08-11T02:37:50;92010.47;;;19.89;65.23
20628;BME280;10473;42.734;24.258;2022-08-11T02:40:26;92001.22;;;19.90;65.20
20628;BME280;10473;42.734;24.258;2022-08-11T02:43:17;92003.59;;;19.88;65.29
20628;BME280;10473;42.734;24.258;2022-08-11T02:45:55;92010.63;;;19.82;65.90
20628;BME280;10473;42.734;24.258;2022-08-11T02:48:45;92007.22;;;19.46;67.20
20628;BME280;10473;42.734;24.258;2022-08-11T02:51:40;92008.41;;;19.61;66.39
20628;BME280;10473;42.734;24.258;2022-08-11T02:54:14;92014.41;;;19.68;65.99
20628;BME280;10473;42.734;24.258;2022-08-11T02:56:50;91999.25;;;19.58;66.65
20628;BME280;10473;42.734;24.258;2022-08-11T02:59:29;92001.53;;;19.60;66.68
20628;BME280;10473;42.734;24.258;2022-08-11T03:02:37;91998.44;;;19.61;66.65
20628;BME280;10473;42.734;24.258;2022-08-11T03:05:32;92006.41;;;19.65;65.87
20628;BME280;10473;42.734;24.258;2022-08-11T03:08:10;92001.84;;;19.62;66.28
20628;BME280;10473;42.734;24.258;2022-08-11T03:10:50;92006.31;;;19.52;66.60
20628;BME280;10473;42.734;24.258;2022-08-11T03:13:38;92010.91;;;19.16;67.51
20628;BME280;10473;42.734;24.258;2022-08-11T03:19:21;92006.63;;;18.99;67.87
20628;BME280;10473;42.734;24.258;2022-08-11T03:22:01;92022.88;;;19.12;67.93
20628;BME280;10473;42.734;24.258;2022-08-11T03:24:38;92018.19;;;19.16;66.95
20628;BME280;10473;42.734;24.258;2022-08-11T03:27:19;92015.56;;;19.12;67.36
20628;BME280;10473;42.734;24.258;2022-08-11T03:30:02;92023.75;;;19.05;67.90
20628;BME280;10473;42.734;24.258;2022-08-11T03:32:36;92030.19;;;19.11;67.51
20628;BME280;10473;42.734;24.258;2022-08-11T03:35:09;92029.50;;;19.07;67.02
20628;BME280;10473;42.734;24.258;2022-08-11T03:37:45;92018.63;;;18.95;67.16
20628;BME280;10473;42.734;24.258;2022-08-11T03:40:32;92024.09;;;18.88;67.77
20628;BME280;10473;42.734;24.258;2022-08-11T03:46:15;92019.84;;;18.71;68.34
20628;BME280;10473;42.734;24.258;2022-08-11T03:49:04;92021.34;;;18.72;68.57
20628;BME280;10473;42.734;24.258;2022-08-11T03:51:50;92010.13;;;18.77;68.32
20628;BME280;10473;42.734;24.258;2022-08-11T03:54:28;92005.66;;;18.70;68.21
20628;BME280;10473;42.734;24.258;2022-08-11T03:57:27;92009.09;;;18.71;68.43
20628;BME280;10473;42.734;24.258;2022-08-11T04:00:19;92015.28;;;18.68;68.80
20628;BME280;10473;42.734;24.258;2022-08-11T04:03:17;92024.72;;;18.76;68.68
20628;BME280;10473;42.734;24.258;2022-08-11T04:12:45;92023.63;;;18.73;68.47
20628;BME280;10473;42.734;24.258;2022-08-11T04:15:43;92023.22;;;18.75;69.03
20628;BME280;10473;42.734;24.258;2022-08-11T04:18:54;92014.63;;;18.83;68.12
20628;BME280;10473;42.734;24.258;2022-08-11T04:22:15;92013.72;;;18.90;68.13
20628;BME280;10473;42.734;24.258;2022-08-11T04:25:09;92020.34;;;19.05;68.02
20628;BME280;10473;42.734;24.258;2022-08-11T04:28:16;92018.94;;;19.36;66.78
20628;BME280;10473;42.734;24.258;2022-08-11T04:31:04;92022.38;;;19.72;66.58
20628;BME280;10473;42.734;24.258;2022-08-11T04:33:48;92016.53;;;19.41;67.66
20628;BME280;10473;42.734;24.258;2022-08-11T04:36:36;92026.97;;;20.07;66.74
20628;BME280;10473;42.734;24.258;2022-08-11T04:39:38;92025.59;;;20.63;64.96
20628;BME280;10473;42.734;24.258;2022-08-11T04:45:44;92007.44;;;21.61;62.10
20628;BME280;10473;42.734;24.258;2022-08-11T04:48:37;92026.03;;;22.22;60.75
20628;BME280;10473;42.734;24.258;2022-08-11T04:51:47;92026.59;;;21.79;59.41
20628;BME280;10473;42.734;24.258;2022-08-11T04:54:50;92016.50;;;21.30;61.42
20628;BME280;10473;42.734;24.258;2022-08-11T04:57:48;92014.97;;;21.29;61.60
20628;BME280;10473;42.734;24.258;2022-08-11T05:00:44;92018.88;;;21.53;61.67
20628;BME280;10473;42.734;24.258;2022-08-11T05:04:03;92022.41;;;22.03;59.88
20628;BME280;10473;42.734;24.258;2022-08-11T05:07:43;92020.66;;;22.22;59.33
20628;BME280;10473;42.734;24.258;2022-08-11T05:10:27;91992.88;;;22.34;59.72
20628;BME280;10473;42.734;24.258;2022-08-11T05:13:00;92013.72;;;22.46;58.29
20628;BME280;10473;42.734;24.258;2022-08-11T05:15:48;92017.63;;;22.45;58.53
20628;BME280;10473;42.734;24.258;2022-08-11T05:18:34;92008.53;;;20.98;62.10
20628;BME280;10473;42.734;24.258;2022-08-11T05:21:21;92007.66;;;20.28;65.01
20628;BME280;10473;42.734;24.258;2022-08-11T05:24:25;92021.78;;;20.32;66.23
20628;BME280;10473;42.734;24.258;2022-08-11T05:27:14;92023.94;;;20.21;65.83
20628;BME280;10473;42.734;24.258;2022-08-11T05:30:03;92019.22;;;19.93;66.28
20628;BME280;10473;42.734;24.258;2022-08-11T05:32:57;92022.44;;;20.20;68.65
20628;BME280;10473;42.734;24.258;2022-08-11T05:35:44;92019.81;;;20.93;65.69
20628;BME280;10473;42.734;24.258;2022-08-11T05:38:18;92027.75;;;21.66;66.52
20628;BME280;10473;42.734;24.258;2022-08-11T05:41:05;92026.81;;;22.10;63.34
20628;BME280;10473;42.734;24.258;2022-08-11T05:43:52;92028.56;;;21.91;61.91
20628;BME280;10473;42.734;24.258;2022-08-11T05:46:39;92029.72;;;22.28;60.40
20628;BME280;10473;42.734;24.258;2022-08-11T05:49:29;92035.91;;;22.75;62.55
20628;BME280;10473;42.734;24.258;2022-08-11T05:52:15;92039.72;;;22.99;60.81
20628;BME280;10473;42.734;24.258;2022-08-11T05:55:02;92037.25;;;22.92;59.60
20628;BME280;10473;42.734;24.258;2022-08-11T05:57:51;92033.78;;;23.68;61.19
20628;BME280;10473;42.734;24.258;2022-08-11T06:00:22;92028.03;;;24.27;58.87
20628;BME280;10473;42.734;24.258;2022-08-11T06:02:52;92032.41;;;24.91;59.13
20628;BME280;10473;42.734;24.258;2022-08-11T06:05:32;92051.09;;;24.89;54.13
20628;BME280;10473;42.734;24.258;2022-08-11T06:08:01;92043.72;;;25.17;55.80
20628;BME280;10473;42.734;24.258;2022-08-11T06:10:32;92040.56;;;24.43;54.45
20628;BME280;10473;42.734;24.258;2022-08-11T06:13:01;92042.66;;;24.97;54.48
20628;BME280;10473;42.734;24.258;2022-08-11T06:15:31;92033.47;;;25.57;52.83
20628;BME280;10473;42.734;24.258;2022-08-11T06:18:00;92033.66;;;26.13;54.35
20628;BME280;10473;42.734;24.258;2022-08-11T06:20:30;92041.00;;;26.54;53.57
20628;BME280;10473;42.734;24.258;2022-08-11T06:23:05;92029.59;;;26.41;50.00
20628;BME280;10473;42.734;24.258;2022-08-11T06:25:35;92022.44;;;27.09;53.65
20628;BME280;10473;42.734;24.258;2022-08-11T06:28:05;92017.09;;;27.52;48.75
20628;BME280;10473;42.734;24.258;2022-08-11T06:30:36;92025.16;;;27.47;47.92
20628;BME280;10473;42.734;24.258;2022-08-11T06:33:08;92026.63;;;27.19;48.65
20628;BME280;10473;42.734;24.258;2022-08-11T06:35:46;92018.38;;;26.57;49.61
20628;BME280;10473;42.734;24.258;2022-08-11T06:38:28;92018.38;;;25.65;51.74
20628;BME280;10473;42.734;24.258;2022-08-11T06:41:06;92014.13;;;26.56;52.84
20628;BME280;10473;42.734;24.258;2022-08-11T06:44:08;92013.28;;;26.09;47.09
20628;BME280;10473;42.734;24.258;2022-08-11T06:46:42;92011.19;;;26.36;45.31
20628;BME280;10473;42.734;24.258;2022-08-11T06:49:14;92007.16;;;25.81;45.25
20628;BME280;10473;42.734;24.258;2022-08-11T06:52:04;92008.44;;;25.17;47.43
20628;BME280;10473;42.734;24.258;2022-08-11T06:54:49;92010.28;;;25.20;46.11
20628;BME280;10473;42.734;24.258;2022-08-11T06:57:29;92011.59;;;25.61;46.56
20628;BME280;10473;42.734;24.258;2022-08-11T07:00:16;92025.63;;;25.59;44.87
20628;BME280;10473;42.734;24.258;2022-08-11T07:03:00;92016.28;;;25.42;45.49
20628;BME280;10473;42.734;24.258;2022-08-11T07:05:39;92017.19;;;25.48;45.97
20628;BME280;10473;42.734;24.258;2022-08-11T07:08:30;92011.16;;;24.81;45.50
20628;BME280;10473;42.734;24.258;2022-08-11T07:11:33;92011.78;;;25.39;46.16
20628;BME280;10473;42.734;24.258;2022-08-11T07:14:37;92021.56;;;24.73;47.37
20628;BME280;10473;42.734;24.258;2022-08-11T07:17:27;92010.72;;;24.16;47.74
20628;BME280;10473;42.734;24.258;2022-08-11T07:19:57;92020.97;;;24.30;47.45
20628;BME280;10473;42.734;24.258;2022-08-11T07:22:49;92013.91;;;23.93;48.55
20628;BME280;10473;42.734;24.258;2022-08-11T07:25:42;92013.34;;;23.76;48.06
20628;BME280;10473;42.734;24.258;2022-08-11T07:28:29;92001.31;;;23.68;49.02
20628;BME280;10473;42.734;24.258;2022-08-11T07:31:19;92012.66;;;23.54;49.15
20628;BME280;10473;42.734;24.258;2022-08-11T07:33:50;92021.34;;;23.80;48.52
20628;BME280;10473;42.734;24.258;2022-08-11T07:36:20;92024.94;;;23.77;48.73
20628;BME280;10473;42.734;24.258;2022-08-11T07:38:51;92014.69;;;23.72;48.24
20628;BME280;10473;42.734;24.258;2022-08-11T07:41:23;92025.53;;;24.02;49.23
20628;BME280;10473;42.734;24.258;2022-08-11T07:43:55;92029.41;;;24.32;49.12
20628;BME280;10473;42.734;24.258;2022-08-11T07:46:37;92019.78;;;24.98;50.51
20628;BME280;10473;42.734;24.258;2022-08-11T07:49:25;92024.88;;;25.23;46.44
20628;BME280;10473;42.734;24.258;2022-08-11T07:52:11;92023.00;;;25.83;45.00
20628;BME280;10473;42.734;24.258;2022-08-11T07:55:01;92024.66;;;25.98;44.14
20628;BME280;10473;42.734;24.258;2022-08-11T07:57:31;92020.19;;;25.68;43.25
20628;BME280;10473;42.734;24.258;2022-08-11T08:00:17;92025.75;;;25.74;42.91
20628;BME280;10473;42.734;24.258;2022-08-11T08:03:04;92021.75;;;26.43;46.71
20628;BME280;10473;42.734;24.258;2022-08-11T08:05:50;92031.16;;;26.89;42.02
20628;BME280;10473;42.734;24.258;2022-08-11T08:08:36;92032.75;;;27.43;41.97
20628;BME280;10473;42.734;24.258;2022-08-11T08:11:24;92033.66;;;27.92;42.90
20628;BME280;10473;42.734;24.258;2022-08-11T08:14:11;92028.38;;;28.32;41.64
20628;BME280;10473;42.734;24.258;2022-08-11T08:16:57;92029.91;;;28.19;39.36
20628;BME280;10473;42.734;24.258;2022-08-11T08:19:46;92015.72;;;28.00;40.88
20628;BME280;10473;42.734;24.258;2022-08-11T08:22:15;92028.41;;;28.67;39.04
20628;BME280;10473;42.734;24.258;2022-08-11T08:24:44;92024.13;;;28.80;37.25
20628;BME280;10473;42.734;24.258;2022-08-11T08:27:13;92026.31;;;28.96;38.04
20628;BME280;10473;42.734;24.258;2022-08-11T08:29:43;92025.25;;;28.88;35.79
20628;BME280;10473;42.734;24.258;2022-08-11T08:32:29;92022.28;;;28.72;36.20
20628;BME280;10473;42.734;24.258;2022-08-11T08:35:02;92015.16;;;28.60;35.87
20628;BME280;10473;42.734;24.258;2022-08-11T08:37:31;92024.72;;;28.70;38.42
20628;BME280;10473;42.734;24.258;2022-08-11T08:39:59;92025.06;;;28.77;37.60
20628;BME280;10473;42.734;24.258;2022-08-11T08:42:28;92032.63;;;29.02;39.09
20628;BME280;10473;42.734;24.258;2022-08-11T08:45:03;92030.31;;;29.35;37.44
20628;BME280;10473;42.734;24.258;2022-08-11T08:47:34;92018.44;;;28.98;34.98
20628;BME280;10473;42.734;24.258;2022-08-11T08:50:05;92018.25;;;28.87;35.79
20628;BME280;10473;42.734;24.258;2022-08-11T08:52:37;92009.91;;;28.56;36.06
20628;BME280;10473;42.734;24.258;2022-08-11T08:55:07;92010.66;;;28.57;35.98
20628;BME280;10473;42.734;24.258;2022-08-11T08:57:38;92026.69;;;29.04;37.59
20628;BME280;10473;42.734;24.258;2022-08-11T09:00:10;92017.22;;;29.19;34.46
20628;BME280;10473;42.734;24.258;2022-08-11T09:02:40;92011.91;;;28.76;34.56
20628;BME280;10473;42.734;24.258;2022-08-11T09:05:09;92012.31;;;28.34;36.09
20628;BME280;10473;42.734;24.258;2022-08-11T09:07:39;92007.06;;;28.16;36.44
20628;BME280;10473;42.734;24.258;2022-08-11T09:10:09;92011.31;;;27.88;37.72
20628;BME280;10473;42.734;24.258;2022-08-11T09:12:39;92008.84;;;28.19;37.73
20628;BME280;10473;42.734;24.258;2022-08-11T09:15:10;92003.47;;;27.14;37.79
20628;BME280;10473;42.734;24.258;2022-08-11T09:17:40;92006.19;;;27.52;39.20
20628;BME280;10473;42.734;24.258;2022-08-11T09:20:12;92005.84;;;28.03;39.15
20628;BME280;10473;42.734;24.258;2022-08-11T09:22:42;92003.75;;;28.41;37.68
20628;BME280;10473;42.734;24.258;2022-08-11T09:25:30;91999.16;;;28.67;36.66
20628;BME280;10473;42.734;24.258;2022-08-11T09:28:17;91989.06;;;28.73;36.15
20628;BME280;10473;42.734;24.258;2022-08-11T09:30:48;91992.28;;;28.72;37.01
20628;BME280;10473;42.734;24.258;2022-08-11T09:33:19;91970.63;;;27.03;37.76
20628;BME280;10473;42.734;24.258;2022-08-11T09:35:48;91991.38;;;27.68;37.06
20628;BME280;10473;42.734;24.258;2022-08-11T09:38:18;91982.72;;;27.55;35.52
20628;BME280;10473;42.734;24.258;2022-08-11T09:41:07;91988.81;;;27.64;37.87
20628;BME280;10473;42.734;24.258;2022-08-11T09:43:38;91983.47;;;27.70;38.42
20628;BME280;10473;42.734;24.258;2022-08-11T09:46:26;91986.69;;;27.97;38.20
20628;BME280;10473;42.734;24.258;2022-08-11T09:48:57;91989.84;;;28.25;38.09
20628;BME280;10473;42.734;24.258;2022-08-11T09:51:29;91994.16;;;28.31;37.99
20628;BME280;10473;42.734;24.258;2022-08-11T09:53:59;91996.78;;;28.26;38.07
20628;BME280;10473;42.734;24.258;2022-08-11T09:56:32;91992.88;;;28.12;37.26
20628;BME280;10473;42.734;24.258;2022-08-11T09:59:32;91985.00;;;28.00;36.50
20628;BME280;10473;42.734;24.258;2022-08-11T10:02:02;91985.00;;;28.00;37.00
20628;BME280;10473;42.734;24.258;2022-08-11T10:04:34;91990.03;;;28.07;38.22
20628;BME280;10473;42.734;24.258;2022-08-11T10:07:04;91976.72;;;27.94;37.29
20628;BME280;10473;42.734;24.258;2022-08-11T10:09:39;91977.94;;;27.93;37.90
20628;BME280;10473;42.734;24.258;2022-08-11T10:12:10;91980.84;;;28.04;38.21
20628;BME280;10473;42.734;24.258;2022-08-11T10:14:43;91978.00;;;28.28;39.83
20628;BME280;10473;42.734;24.258;2022-08-11T10:17:33;91980.59;;;28.51;40.50
20628;BME280;10473;42.734;24.258;2022-08-11T10:20:05;91985.25;;;28.65;38.27
20628;BME280;10473;42.734;24.258;2022-08-11T10:22:34;91979.28;;;28.47;37.43
20628;BME280;10473;42.734;24.258;2022-08-11T10:25:20;91976.75;;;28.43;38.00
20628;BME280;10473;42.734;24.258;2022-08-11T10:28:08;91974.81;;;28.29;36.72
20628;BME280;10473;42.734;24.258;2022-08-11T10:30:38;91977.53;;;28.29;38.15
20628;BME280;10473;42.734;24.258;2022-08-11T10:33:24;91977.97;;;28.42;38.41
20628;BME280;10473;42.734;24.258;2022-08-11T10:36:09;91964.47;;;28.53;38.37
20628;BME280;10473;42.734;24.258;2022-08-11T10:38:39;91981.97;;;28.81;38.70
20628;BME280;10473;42.734;24.258;2022-08-11T10:41:08;91978.09;;;29.08;39.60
20628;BME280;10473;42.734;24.258;2022-08-11T10:43:54;91977.06;;;29.25;36.64
20628;BME280;10473;42.734;24.258;2022-08-11T10:46:22;91970.66;;;29.28;37.92
20628;BME280;10473;42.734;24.258;2022-08-11T10:49:09;91958.59;;;29.40;37.31
20628;BME280;10473;42.734;24.258;2022-08-11T10:51:37;91969.28;;;29.64;37.03
20628;BME280;10473;42.734;24.258;2022-08-11T10:54:23;91966.63;;;29.69;35.93
20628;BME280;10473;42.734;24.258;2022-08-11T10:57:09;91963.19;;;29.74;35.36
20628;BME280;10473;42.734;24.258;2022-08-11T10:59:55;91950.38;;;29.86;33.95
20628;BME280;10473;42.734;24.258;2022-08-11T11:02:23;91952.50;;;29.76;34.75
20628;BME280;10473;42.734;24.258;2022-08-11T11:05:02;91942.91;;;29.86;34.50
20628;BME280;10473;42.734;24.258;2022-08-11T11:07:37;91939.47;;;29.91;36.70
20628;BME280;10473;42.734;24.258;2022-08-11T11:10:06;91948.47;;;29.97;35.99
20628;BME280;10473;42.734;24.258;2022-08-11T11:12:40;91930.16;;;29.78;35.01
20628;BME280;10473;42.734;24.258;2022-08-11T11:15:29;91933.53;;;29.62;36.33
20628;BME280;10473;42.734;24.258;2022-08-11T11:18:18;91934.91;;;29.77;37.62
20628;BME280;10473;42.734;24.258;2022-08-11T11:20:53;91944.88;;;29.55;36.27
20628;BME280;10473;42.734;24.258;2022-08-11T11:23:25;91949.84;;;29.56;37.32
20628;BME280;10473;42.734;24.258;2022-08-11T11:26:30;91940.81;;;29.50;37.62
20628;BME280;10473;42.734;24.258;2022-08-11T11:29:21;91936.38;;;29.53;36.85
20628;BME280;10473;42.734;24.258;2022-08-11T11:35:08;91941.84;;;29.53;35.58
20628;BME280;10473;42.734;24.258;2022-08-11T11:37:40;91943.91;;;29.58;36.34
20628;BME280;10473;42.734;24.258;2022-08-11T11:40:10;91941.47;;;29.60;36.38
20628;BME280;10473;42.734;24.258;2022-08-11T11:42:39;91951.44;;;29.43;35.29
20628;BME280;10473;42.734;24.258;2022-08-11T11:45:09;91955.47;;;29.47;35.35
20628;BME280;10473;42.734;24.258;2022-08-11T11:47:37;91942.31;;;29.51;34.12
20628;BME280;10473;42.734;24.258;2022-08-11T11:50:06;91945.66;;;29.35;36.13
20628;BME280;10473;42.734;24.258;2022-08-11T11:52:37;91954.47;;;29.25;36.92
20628;BME280;10473;42.734;24.258;2022-08-11T11:55:08;91948.69;;;29.17;36.54
20628;BME280;10473;42.734;24.258;2022-08-11T11:57:36;91941.00;;;29.16;38.45
20628;BME280;10473;42.734;24.258;2022-08-11T12:00:21;91943.53;;;29.25;37.25
20628;BME280;10473;42.734;24.258;2022-08-11T12:03:09;91940.78;;;29.19;37.01
20628;BME280;10473;42.734;24.258;2022-08-11T12:05:38;91939.44;;;29.09;36.96
20628;BME280;10473;42.734;24.258;2022-08-11T12:08:08;91937.38;;;29.04;37.03
20628;BME280;10473;42.734;24.258;2022-08-11T12:10:46;91935.53;;;29.16;36.42
20628;BME280;10473;42.734;24.258;2022-08-11T12:13:16;91926.50;;;29.10;35.02
20628;BME280;10473;42.734;24.258;2022-08-11T12:16:02;91930.59;;;29.20;35.91
20628;BME280;10473;42.734;24.258;2022-08-11T12:18:31;91926.84;;;29.17;35.81
20628;BME280;10473;42.734;24.258;2022-08-11T12:21:01;91926.97;;;29.28;37.15
20628;BME280;10473;42.734;24.258;2022-08-11T12:23:30;91922.75;;;29.07;35.69
20628;BME280;10473;42.734;24.258;2022-08-11T12:26:18;91920.25;;;28.64;37.96
20628;BME280;10473;42.734;24.258;2022-08-11T12:29:04;91916.13;;;28.34;37.99
20628;BME280;10473;42.734;24.258;2022-08-11T12:31:33;91929.81;;;28.19;38.90
20628;BME280;10473;42.734;24.258;2022-08-11T12:34:04;91918.16;;;28.04;39.53
20628;BME280;10473;42.734;24.258;2022-08-11T12:36:35;91921.09;;;27.72;39.17
20628;BME280;10473;42.734;24.258;2022-08-11T12:39:06;91921.31;;;27.39;39.58
20628;BME280;10473;42.734;24.258;2022-08-11T12:41:37;91920.00;;;27.20;39.56
20628;BME280;10473;42.734;24.258;2022-08-11T12:44:26;91923.72;;;27.08;40.64
20628;BME280;10473;42.734;24.258;2022-08-11T12:47:14;91903.25;;;26.98;40.64
20628;BME280;10473;42.734;24.258;2022-08-11T12:49:45;91914.97;;;27.04;41.08
20628;BME280;10473;42.734;24.258;2022-08-11T12:52:34;91905.03;;;27.16;40.63
20628;BME280;10473;42.734;24.258;2022-08-11T12:55:08;91919.25;;;27.20;38.90
20628;BME280;10473;42.734;24.258;2022-08-11T12:57:41;91917.75;;;27.19;38.89
20628;BME280;10473;42.734;24.258;2022-08-11T13:00:29;91908.16;;;27.09;39.58
20628;BME280;10473;42.734;24.258;2022-08-11T13:03:18;91907.66;;;26.96;40.15
20628;BME280;10473;42.734;24.258;2022-08-11T13:06:04;91917.31;;;26.97;40.85
20628;BME280;10473;42.734;24.258;2022-08-11T13:08:36;91924.22;;;26.83;41.03
20628;BME280;10473;42.734;24.258;2022-08-11T13:11:04;91917.63;;;26.75;41.34
20628;BME280;10473;42.734;24.258;2022-08-11T13:13:52;91916.19;;;26.42;42.08
20628;BME280;10473;42.734;24.258;2022-08-11T13:16:23;91906.66;;;26.23;41.40
20628;BME280;10473;42.734;24.258;2022-08-11T13:18:51;91921.59;;;26.27;41.62
20628;BME280;10473;42.734;24.258;2022-08-11T13:21:20;91928.84;;;26.21;42.56
20628;BME280;10473;42.734;24.258;2022-08-11T13:23:51;91908.59;;;26.22;42.75
20628;BME280;10473;42.734;24.258;2022-08-11T13:26:21;91910.09;;;26.32;42.08
20628;BME280;10473;42.734;24.258;2022-08-11T13:28:51;91929.03;;;26.41;42.32
20628;BME280;10473;42.734;24.258;2022-08-11T13:31:20;91917.88;;;26.39;42.10
20628;BME280;10473;42.734;24.258;2022-08-11T13:33:48;91913.94;;;26.40;42.66
20628;BME280;10473;42.734;24.258;2022-08-11T13:36:19;91913.22;;;26.40;41.79
20628;BME280;10473;42.734;24.258;2022-08-11T13:38:48;91923.50;;;26.36;41.58
20628;BME280;10473;42.734;24.258;2022-08-11T13:41:16;91915.63;;;26.14;41.16
20628;BME280;10473;42.734;24.258;2022-08-11T13:44:10;91902.66;;;26.09;42.67
20628;BME280;10473;42.734;24.258;2022-08-11T13:46:38;91912.50;;;26.07;42.85
20628;BME280;10473;42.734;24.258;2022-08-11T13:49:09;91904.38;;;25.98;43.16
20628;BME280;10473;42.734;24.258;2022-08-11T13:51:37;91898.69;;;25.87;42.15
20628;BME280;10473;42.734;24.258;2022-08-11T13:54:07;91902.72;;;26.00;43.33
20628;BME280;10473;42.734;24.258;2022-08-11T13:56:37;91902.50;;;26.13;42.67
20628;BME280;10473;42.734;24.258;2022-08-11T13:59:08;91900.94;;;26.21;42.01
20628;BME280;10473;42.734;24.258;2022-08-11T14:01:38;91903.19;;;26.22;41.97
20628;BME280;10473;42.734;24.258;2022-08-11T14:04:09;91904.16;;;26.34;42.28
20628;BME280;10473;42.734;24.258;2022-08-11T14:06:40;91914.53;;;26.44;41.85
20628;BME280;10473;42.734;24.258;2022-08-11T14:09:11;91928.38;;;26.46;41.52
20628;BME280;10473;42.734;24.258;2022-08-11T14:11:42;91914.16;;;26.51;41.76
20628;BME280;10473;42.734;24.258;2022-08-11T14:14:31;91916.56;;;26.58;41.86
20628;BME280;10473;42.734;24.258;2022-08-11T14:17:03;91910.19;;;26.61;41.11
20628;BME280;10473;42.734;24.258;2022-08-11T14:19:34;91909.94;;;26.50;40.25
20628;BME280;10473;42.734;24.258;2022-08-11T14:22:04;91897.13;;;26.51;40.83
20628;BME280;10473;42.734;24.258;2022-08-11T14:24:36;91904.81;;;26.52;41.11
20628;BME280;10473;42.734;24.258;2022-08-11T14:27:07;91899.91;;;26.42;40.48
20628;BME280;10473;42.734;24.258;2022-08-11T14:29:37;91912.91;;;26.38;40.59
20628;BME280;10473;42.734;24.258;2022-08-11T14:32:07;91909.44;;;26.37;41.43
20628;BME280;10473;42.734;24.258;2022-08-11T14:34:38;91900.94;;;26.44;41.77
20628;BME280;10473;42.734;24.258;2022-08-11T14:37:08;91891.63;;;26.36;40.92
20628;BME280;10473;42.734;24.258;2022-08-11T14:39:41;91910.59;;;26.45;41.72